createdAt,value
2023-01-03T00:02:20.983Z,3.17
2023-01-03T00:04:49.915Z,3.22
2023-01-03T00:07:34.305Z,3.13
2023-01-03T00:10:10.717Z,4.38
2023-01-03T00:12:38.749Z,2.58
2023-01-03T00:15:07.434Z,3.53
2023-01-03T00:17:35.038Z,2.88
2023-01-03T00:20:03.303Z,3.05
2023-01-03T00:22:34.726Z,3.28
2023-01-03T00:25:03.172Z,3.53
2023-01-03T00:27:31.843Z,4.47
2023-01-03T00:29:59.468Z,3.65
2023-01-03T00:32:27.329Z,2.90
2023-01-03T00:34:56.836Z,3.85
2023-01-03T00:37:27.976Z,3.53
2023-01-03T00:39:59.933Z,5.20
2023-01-03T00:42:28.115Z,4.80
2023-01-03T00:44:56.028Z,3.78
2023-01-03T00:47:23.676Z,3.28
2023-01-03T00:49:51.228Z,3.85
2023-01-03T00:52:18.872Z,2.70
2023-01-03T00:54:46.929Z,3.22
2023-01-03T00:57:14.288Z,2.83
2023-01-03T00:59:42.316Z,2.58
2023-01-03T01:02:10.626Z,3.35
2023-01-03T01:04:38.357Z,2.45
2023-01-03T01:07:06.049Z,2.58
2023-01-03T01:10:03.113Z,3.40
2023-01-03T01:12:30.713Z,4.35
2023-01-03T01:14:58.177Z,3.30
2023-01-03T01:17:30.872Z,3.22
2023-01-03T01:19:58.605Z,3.78
2023-01-03T01:22:26.078Z,4.07
2023-01-03T01:24:53.719Z,3.33
2023-01-03T01:27:23.616Z,3.05
2023-01-03T01:29:51.289Z,2.70
2023-01-03T01:32:19.155Z,2.83
2023-01-03T01:34:46.775Z,2.70
2023-01-03T01:37:14.183Z,7.45
2023-01-03T01:39:41.961Z,4.00
2023-01-03T01:42:32.548Z,2.95
2023-01-03T01:45:06.684Z,3.10
2023-01-03T01:48:07.531Z,3.10
2023-01-03T01:50:55.423Z,2.50
2023-01-03T01:53:32.209Z,2.45
2023-01-03T01:56:25.936Z,2.28
2023-01-03T01:58:55.288Z,3.83
2023-01-03T02:01:25.347Z,2.95
2023-01-03T02:04:15.891Z,3.40
2023-01-03T02:06:44.713Z,2.80
2023-01-03T02:09:12.344Z,3.70
2023-01-03T02:12:57.179Z,3.75
2023-01-03T02:15:41.788Z,2.58
2023-01-03T02:18:40.727Z,2.95
2023-01-03T02:21:55.819Z,3.08
2023-01-03T02:25:06.739Z,3.30
2023-01-03T02:28:07.254Z,3.70
2023-01-03T02:31:18.565Z,3.00
2023-01-03T02:34:24.125Z,3.72
2023-01-03T02:37:49.432Z,4.75
2023-01-03T02:40:40.779Z,2.92
2023-01-03T02:43:19.151Z,3.05
2023-01-03T02:46:14.120Z,2.55
2023-01-03T02:49:10.399Z,3.97
2023-01-03T02:51:48.839Z,3.15
2023-01-03T02:54:27.868Z,3.53
2023-01-03T02:57:09.813Z,2.38
2023-01-03T02:59:48.137Z,2.85
2023-01-03T03:02:19.079Z,3.20
2023-01-03T03:04:55.607Z,3.65
2023-01-03T03:07:34.874Z,2.88
2023-01-03T03:10:22.781Z,2.85
2023-01-03T03:13:16.225Z,3.22
2023-01-03T03:16:00.467Z,3.78
2023-01-03T03:18:44.664Z,3.97
2023-01-03T03:21:37.227Z,5.03
2023-01-03T03:24:37.465Z,2.60
2023-01-03T03:27:30.877Z,2.05
2023-01-03T03:30:04.971Z,3.15
2023-01-03T03:32:36.579Z,2.65
2023-01-03T03:35:12.114Z,2.20
2023-01-03T03:37:45.447Z,2.85
2023-01-03T03:40:32.636Z,7.78
2023-01-03T03:43:43.311Z,6.85
2023-01-03T03:46:24.763Z,3.53
2023-01-03T03:49:36.319Z,2.33
2023-01-03T03:52:13.342Z,3.03
2023-01-03T03:54:51.309Z,3.10
2023-01-03T03:57:55.094Z,3.20
2023-01-03T04:00:30.429Z,2.47
2023-01-03T04:03:02.961Z,3.45
2023-01-03T04:05:39.285Z,2.60
2023-01-03T04:08:07.272Z,3.40
2023-01-03T04:10:38.002Z,2.78
2023-01-03T04:13:06.614Z,3.03
2023-01-03T04:15:34.157Z,2.33
2023-01-03T04:18:02.730Z,4.15
2023-01-03T04:20:30.462Z,2.70
2023-01-03T04:22:57.897Z,3.72
2023-01-03T04:25:26.118Z,2.97
2023-01-03T04:27:53.641Z,5.70
2023-01-03T04:30:21.100Z,3.15
2023-01-03T04:32:48.449Z,3.15
2023-01-03T04:35:15.934Z,4.50
2023-01-03T04:37:43.390Z,2.95
2023-01-03T04:40:11.943Z,3.97
2023-01-03T04:42:57.995Z,5.28
2023-01-03T04:45:25.498Z,2.90
2023-01-03T04:47:54.271Z,3.78
2023-01-03T04:50:21.692Z,3.97
2023-01-03T04:52:49.205Z,3.92
2023-01-03T04:55:17.083Z,3.63
2023-01-03T04:57:50.107Z,3.70
2023-01-03T05:00:18.395Z,5.22
2023-01-03T05:02:45.856Z,3.80
2023-01-03T05:05:13.284Z,3.38
2023-01-03T05:07:40.836Z,4.22
2023-01-03T05:10:09.095Z,3.10
2023-01-03T05:12:36.780Z,4.20
2023-01-03T05:15:04.916Z,3.40
2023-01-03T05:17:32.337Z,5.65
2023-01-03T05:20:18.537Z,5.35
2023-01-03T05:23:05.064Z,3.22
2023-01-03T05:25:50.732Z,5.40
2023-01-03T05:28:24.304Z,5.28
2023-01-03T05:30:51.901Z,5.20
2023-01-03T05:33:19.444Z,5.10
2023-01-03T05:35:48.480Z,3.20
2023-01-03T05:38:16.229Z,3.72
2023-01-03T05:40:44.574Z,3.78
2023-01-03T05:43:12.362Z,3.17
2023-01-03T05:45:40.511Z,4.57
2023-01-03T05:48:09.655Z,4.72
2023-01-03T05:50:38.007Z,4.30
2023-01-03T05:53:05.671Z,6.43
2023-01-03T05:55:33.209Z,5.30
2023-01-03T05:58:00.812Z,4.43
2023-01-03T06:00:31.873Z,7.25
2023-01-03T06:02:59.616Z,5.32
2023-01-03T06:05:27.128Z,5.20
2023-01-03T06:07:54.764Z,6.32
2023-01-03T06:10:22.430Z,4.80
2023-01-03T06:12:49.919Z,6.70
2023-01-03T06:15:17.473Z,8.27
2023-01-03T06:18:00.193Z,5.07
2023-01-03T06:20:29.300Z,4.97
2023-01-03T06:22:59.502Z,7.18
2023-01-03T06:25:29.747Z,5.57
2023-01-03T06:27:57.299Z,4.45
2023-01-03T06:30:25.159Z,4.75
2023-01-03T06:32:52.754Z,3.80
2023-01-03T06:35:21.393Z,6.03
2023-01-03T06:37:48.910Z,5.03
2023-01-03T06:40:16.769Z,4.80
2023-01-03T06:42:44.192Z,5.50
2023-01-03T06:45:33.768Z,7.50
2023-01-03T06:48:25.040Z,4.57
2023-01-03T06:51:11.796Z,4.78
2023-01-03T06:53:43.229Z,4.78
2023-01-03T06:56:11.842Z,6.43
2023-01-03T06:58:41.636Z,4.75
2023-01-03T07:01:09.857Z,6.75
2023-01-03T07:03:37.379Z,4.38
2023-01-03T07:06:05.064Z,5.38
2023-01-03T07:08:32.740Z,4.18
2023-01-03T07:11:00.373Z,4.22
2023-01-03T07:13:47.323Z,8.38
2023-01-03T07:16:18.905Z,10.57
2023-01-03T07:18:54.758Z,4.93
2023-01-03T07:21:31.725Z,5.93
2023-01-03T07:24:02.861Z,4.97
2023-01-03T07:26:33.980Z,4.78
2023-01-03T07:29:07.340Z,4.93
2023-01-03T07:31:39.459Z,4.57
2023-01-03T07:34:07.950Z,6.60
2023-01-03T07:36:35.665Z,7.68
2023-01-03T07:39:03.578Z,6.03
2023-01-03T07:41:49.830Z,4.97
2023-01-03T07:44:25.550Z,6.53
2023-01-03T07:46:53.265Z,5.40
2023-01-03T07:49:20.900Z,7.07
2023-01-03T07:51:53.077Z,7.72
2023-01-03T07:54:23.576Z,7.35
2023-01-03T07:56:51.299Z,9.55
2023-01-03T07:59:19.278Z,7.15
2023-01-03T08:01:46.854Z,8.13
2023-01-03T08:04:14.745Z,8.52
2023-01-03T08:06:42.244Z,9.27
2023-01-03T08:09:28.409Z,6.88
2023-01-03T08:12:14.870Z,5.75
2023-01-03T08:14:42.333Z,6.78
2023-01-03T08:17:09.879Z,6.43
2023-01-03T08:19:43.636Z,6.70
2023-01-03T08:22:14.345Z,8.45
2023-01-03T08:24:43.824Z,5.10
2023-01-03T08:27:11.770Z,6.30
2023-01-03T08:29:39.555Z,7.88
2023-01-03T08:32:08.035Z,6.85
2023-01-03T08:34:41.863Z,5.75
2023-01-03T08:37:14.261Z,5.28
2023-01-03T08:39:57.358Z,8.98
2023-01-03T08:42:27.289Z,6.60
2023-01-03T08:45:05.201Z,7.55
2023-01-03T08:47:33.914Z,6.25
2023-01-03T08:50:03.370Z,6.53
2023-01-03T08:52:35.024Z,9.88
2023-01-03T08:55:05.528Z,8.33
2023-01-03T08:57:33.619Z,6.13
2023-01-03T09:00:01.362Z,7.53
2023-01-03T09:02:29.651Z,5.65
2023-01-03T09:04:57.584Z,6.30
2023-01-03T09:07:25.373Z,8.85
2023-01-03T09:09:53.773Z,8.98
2023-01-03T09:12:21.335Z,7.13
2023-01-03T09:14:49.688Z,8.48
2023-01-03T09:17:22.584Z,6.07
2023-01-03T09:19:50.518Z,8.75
2023-01-03T09:22:18.302Z,6.72
2023-01-03T09:24:46.155Z,8.57
2023-01-03T09:27:13.985Z,7.20
2023-01-03T09:29:41.984Z,7.03
2023-01-03T09:32:09.731Z,5.65
2023-01-03T09:34:37.614Z,7.32
2023-01-03T09:37:05.420Z,9.30
2023-01-03T09:39:33.665Z,11.15
2023-01-03T09:42:20.557Z,9.13
2023-01-03T09:44:48.554Z,11.02
2023-01-03T09:47:31.181Z,9.88
2023-01-03T09:50:29.060Z,12.48
2023-01-03T09:53:07.588Z,10.75
2023-01-03T09:56:15.986Z,10.25
2023-01-03T09:59:29.036Z,12.75
2023-01-03T10:02:36.647Z,10.82
2023-01-03T10:05:39.551Z,8.68
2023-01-03T10:08:47.625Z,9.93
2023-01-03T10:12:04.454Z,8.02
2023-01-03T10:15:15.485Z,7.22
2023-01-03T10:18:48.440Z,7.78
2023-01-03T10:21:38.315Z,8.20
2023-01-03T10:24:23.589Z,5.22
2023-01-03T10:27:04.691Z,7.90
2023-01-03T10:29:32.644Z,6.22
2023-01-03T10:32:19.994Z,5.53
2023-01-03T10:35:20.379Z,7.22
2023-01-03T10:37:53.043Z,5.68
2023-01-03T10:40:32.647Z,6.30
2023-01-03T10:43:30.092Z,6.72
2023-01-03T10:46:10.248Z,7.30
2023-01-03T10:52:04.255Z,5.28
2023-01-03T10:54:48.619Z,4.47
2023-01-03T10:57:44.061Z,5.10
2023-01-03T11:00:21.458Z,4.60
2023-01-03T11:02:52.729Z,5.15
2023-01-03T11:05:28.224Z,4.43
2023-01-03T11:08:00.653Z,3.90
2023-01-03T11:10:59.580Z,4.82
2023-01-03T11:13:41.048Z,4.63
2023-01-03T11:16:21.759Z,3.40
2023-01-03T11:19:06.974Z,4.20
2023-01-03T11:22:01.677Z,3.97
2023-01-03T11:25:19.956Z,4.70
2023-01-03T11:28:34.129Z,4.38
2023-01-03T11:31:56.114Z,5.35
2023-01-03T11:35:21.631Z,4.88
2023-01-03T11:38:05.413Z,9.45
2023-01-03T11:41:17.633Z,4.85
2023-01-03T11:44:42.697Z,5.22
2023-01-03T11:47:32.307Z,4.90
2023-01-03T11:50:57.815Z,4.25
2023-01-03T11:53:41.679Z,4.95
2023-01-03T11:56:30.701Z,7.03
2023-01-03T11:59:46.567Z,4.72
2023-01-03T12:02:50.582Z,5.47
2023-01-03T12:05:59.099Z,4.28
2023-01-03T12:08:57.148Z,5.05
2023-01-03T12:12:31.290Z,3.38
2023-01-03T12:15:23.832Z,3.70
2023-01-03T12:18:41.485Z,3.38
2023-01-03T12:21:38.220Z,3.30
2023-01-03T12:24:19.894Z,5.05
2023-01-03T12:27:27.115Z,4.00
2023-01-03T12:30:29.372Z,2.58
2023-01-03T12:33:31.053Z,4.40
2023-01-03T12:36:40.060Z,3.28
2023-01-03T12:39:41.744Z,2.83
2023-01-03T12:43:04.637Z,4.07
2023-01-03T12:46:05.734Z,6.35
2023-01-03T12:49:21.939Z,3.15
2023-01-03T12:52:07.416Z,3.75
2023-01-03T12:54:48.105Z,4.00
2023-01-03T12:57:39.390Z,2.60
2023-01-03T13:00:49.986Z,3.38
2023-01-03T13:03:51.552Z,8.23
2023-01-03T13:06:48.094Z,4.55
2023-01-03T13:09:56.007Z,7.32
2023-01-03T13:12:43.328Z,3.35
2023-01-03T13:15:37.225Z,2.83
2023-01-03T13:18:38.977Z,2.63
2023-01-03T13:22:03.250Z,3.35
2023-01-03T13:24:49.566Z,5.38
2023-01-03T13:27:48.234Z,2.88
2023-01-03T13:33:57.742Z,3.58
2023-01-03T13:37:07.427Z,3.70
2023-01-03T13:39:50.957Z,3.05
2023-01-03T13:42:49.935Z,4.82
2023-01-03T13:45:43.239Z,4.97
2023-01-03T13:48:33.333Z,2.90
2023-01-03T13:51:16.669Z,4.07
2023-01-03T13:54:49.757Z,4.03
2023-01-03T13:57:53.505Z,3.42
2023-01-03T14:04:54.285Z,3.20
2023-01-03T14:08:21.738Z,4.55
2023-01-03T14:11:57.143Z,6.32
2023-01-03T14:14:31.672Z,3.53
2023-01-03T14:17:04.727Z,3.38
2023-01-03T14:19:46.744Z,5.03
2023-01-03T14:22:39.879Z,5.15
2023-01-03T14:25:43.164Z,3.17
2023-01-03T14:28:24.469Z,4.13
2023-01-03T14:30:56.770Z,6.25
2023-01-03T14:33:41.435Z,2.95
2023-01-03T14:36:21.541Z,2.92
2023-01-03T14:39:02.783Z,4.57
2023-01-03T14:41:43.831Z,3.70
2023-01-03T14:44:11.972Z,4.40
2023-01-03T14:46:56.208Z,3.90
2023-01-03T14:49:41.540Z,3.30
2023-01-03T14:52:36.304Z,3.08
2023-01-03T14:55:20.450Z,4.47
2023-01-03T14:57:52.751Z,3.13
2023-01-03T15:00:35.122Z,5.57
2023-01-03T15:03:13.986Z,2.47
2023-01-03T15:05:43.079Z,2.75
2023-01-03T15:08:42.870Z,6.47
2023-01-03T15:11:16.412Z,4.53
2023-01-03T15:14:02.087Z,4.25
2023-01-03T15:16:41.556Z,3.63
2023-01-03T15:19:32.745Z,4.20
2023-01-03T15:22:21.801Z,7.00
2023-01-03T15:25:08.183Z,6.05
2023-01-03T15:27:38.432Z,5.95
2023-01-03T15:30:17.383Z,7.32
2023-01-03T15:33:21.158Z,6.50
2023-01-03T15:35:59.102Z,9.90
2023-01-03T15:38:35.018Z,6.95
2023-01-03T15:41:43.555Z,8.48
2023-01-03T15:44:18.362Z,8.77
2023-01-03T15:46:49.980Z,6.55
2023-01-03T15:49:26.534Z,7.47
2023-01-03T15:52:00.813Z,7.78
2023-01-03T15:54:34.633Z,6.40
2023-01-03T15:57:15.460Z,7.88
2023-01-03T15:59:45.019Z,8.43
2023-01-03T16:02:27.887Z,8.30
2023-01-03T16:05:00.004Z,12.25
2023-01-03T16:07:30.676Z,12.45
2023-01-03T16:10:02.044Z,16.42
2023-01-03T16:12:38.713Z,12.10
2023-01-03T16:15:10.223Z,14.57
2023-01-03T16:17:40.384Z,13.25
2023-01-03T16:20:26.009Z,12.10
2023-01-03T16:23:08.562Z,11.00
2023-01-03T16:25:40.724Z,7.57
2023-01-03T16:28:12.528Z,11.27
2023-01-03T16:30:52.412Z,8.40
2023-01-03T16:33:23.047Z,6.68
2023-01-03T16:35:51.831Z,8.50
2023-01-03T16:38:25.743Z,9.15
2023-01-03T16:41:05.931Z,7.70
2023-01-03T16:43:36.151Z,7.93
2023-01-03T16:46:04.216Z,14.48
2023-01-03T16:48:43.454Z,11.45
2023-01-03T16:51:27.833Z,23.85
2023-01-03T16:54:00.573Z,17.70
2023-01-03T16:56:28.679Z,13.30
2023-01-03T16:58:56.491Z,14.55
2023-01-03T17:01:24.558Z,22.27
2023-01-03T17:03:52.695Z,22.45
2023-01-03T17:06:38.080Z,17.15
2023-01-03T17:09:52.399Z,14.82
2023-01-03T17:12:24.889Z,15.38
2023-01-03T17:14:53.442Z,15.77
2023-01-03T17:17:23.977Z,16.05
2023-01-03T17:20:07.493Z,14.55
2023-01-03T17:22:35.865Z,13.23
2023-01-03T17:25:04.252Z,13.00
2023-01-03T17:27:40.813Z,15.77
2023-01-03T17:30:09.151Z,15.65
2023-01-03T17:32:38.974Z,18.20
2023-01-03T17:35:12.616Z,21.23
2023-01-03T17:38:05.647Z,17.77
2023-01-03T17:40:33.345Z,16.92
2023-01-03T17:43:10.640Z,19.13
2023-01-03T17:46:23.449Z,17.20
2023-01-03T17:49:10.752Z,14.27
2023-01-03T17:51:38.894Z,17.35
2023-01-03T17:54:06.740Z,19.60
2023-01-03T17:56:40.219Z,21.55
2023-01-03T17:59:14.850Z,22.15
2023-01-03T18:01:42.955Z,15.75
2023-01-03T18:04:12.011Z,17.67
2023-01-03T18:06:40.485Z,19.30
2023-01-03T18:09:18.602Z,20.40
2023-01-03T18:12:22.804Z,23.33
2023-01-03T18:14:50.789Z,22.08
2023-01-03T18:17:39.115Z,21.25
2023-01-03T18:20:07.992Z,22.88
2023-01-03T18:22:55.535Z,20.85
2023-01-03T18:25:27.742Z,18.75
2023-01-03T18:28:08.052Z,21.52
2023-01-03T18:30:36.272Z,22.38
2023-01-03T18:33:04.440Z,18.20
2023-01-03T18:35:37.825Z,16.08
2023-01-03T18:38:32.384Z,17.13
2023-01-03T18:41:04.774Z,21.10
2023-01-03T18:43:34.647Z,17.52
2023-01-03T18:46:04.966Z,16.23
2023-01-03T18:48:32.737Z,15.02
2023-01-03T18:51:01.656Z,15.75
2023-01-03T18:53:33.922Z,16.30
2023-01-03T18:56:03.198Z,14.90
2023-01-03T18:58:42.836Z,17.02
2023-01-03T19:01:12.667Z,11.40
2023-01-03T19:03:44.060Z,15.00
2023-01-03T19:06:30.478Z,15.25
2023-01-03T19:09:04.988Z,14.90
2023-01-03T19:11:37.342Z,14.07
2023-01-03T19:14:10.048Z,16.80
2023-01-03T19:16:44.855Z,17.90
2023-01-03T19:19:12.619Z,19.05
2023-01-03T19:21:46.168Z,16.75
2023-01-03T19:24:24.387Z,16.10
2023-01-03T19:27:15.235Z,16.10
2023-01-03T19:29:45.139Z,16.38
2023-01-03T19:32:39.669Z,17.08
2023-01-03T19:38:23.309Z,18.30
2023-01-03T19:41:09.163Z,18.75
2023-01-03T19:43:37.344Z,24.50
2023-01-03T19:46:15.619Z,20.65
2023-01-03T19:48:45.188Z,19.45
2023-01-03T19:51:15.849Z,20.63
2023-01-03T19:53:46.303Z,21.02
2023-01-03T19:56:29.194Z,22.10
2023-01-03T19:59:02.863Z,23.58
2023-01-03T20:02:14.160Z,19.33
2023-01-03T20:04:29.348Z,21.50
2023-01-03T20:06:57.185Z,19.08
2023-01-03T20:09:35.030Z,16.25
2023-01-03T20:12:28.362Z,16.92
2023-01-03T20:15:09.294Z,18.85
2023-01-03T20:17:51.520Z,17.83
2023-01-03T20:20:21.645Z,16.58
2023-01-03T20:23:13.306Z,15.25
2023-01-03T20:25:54.731Z,16.20
2023-01-03T20:28:32.698Z,17.00
2023-01-03T20:31:04.386Z,14.55
2023-01-03T20:33:38.473Z,14.73
2023-01-03T20:36:22.622Z,21.08
2023-01-03T20:39:02.725Z,19.02
2023-01-03T20:41:41.333Z,15.95
2023-01-03T20:44:16.245Z,15.25
2023-01-03T20:47:00.218Z,16.63
2023-01-03T20:49:29.598Z,16.30
2023-01-03T20:52:03.271Z,17.13
2023-01-03T20:54:36.278Z,15.43
2023-01-03T20:57:17.481Z,19.08
2023-01-03T20:59:45.547Z,18.92
2023-01-03T21:02:16.169Z,16.90
2023-01-03T21:04:44.485Z,19.05
2023-01-03T21:07:50.416Z,22.13
2023-01-03T21:10:32.988Z,18.65
2023-01-03T21:13:04.162Z,17.10
2023-01-03T21:15:33.913Z,20.73
2023-01-03T21:18:03.114Z,21.92
2023-01-03T21:20:34.226Z,20.42
2023-01-03T21:23:02.279Z,19.40
2023-01-03T21:25:35.496Z,17.45
2023-01-03T21:28:13.958Z,19.83
2023-01-03T21:30:42.919Z,18.23
2023-01-03T21:33:19.120Z,19.33
2023-01-03T21:35:50.686Z,17.60
2023-01-03T21:38:19.283Z,14.70
2023-01-03T21:40:50.133Z,15.63
2023-01-03T21:43:19.912Z,16.25
2023-01-03T21:45:55.073Z,16.02
2023-01-03T21:48:26.089Z,15.02
2023-01-03T21:50:54.298Z,14.77
2023-01-03T21:53:23.860Z,16.02
2023-01-03T21:55:53.991Z,16.25
2023-01-03T21:58:23.699Z,14.75
2023-01-03T22:00:51.862Z,14.98
2023-01-03T22:03:39.263Z,15.57
2023-01-03T22:06:14.648Z,16.50
2023-01-03T22:08:42.129Z,15.52
2023-01-03T22:11:09.751Z,13.38
2023-01-03T22:13:39.742Z,14.27
2023-01-03T22:16:11.030Z,16.48
2023-01-03T22:18:41.910Z,16.50
2023-01-03T22:21:12.093Z,15.35
2023-01-03T22:23:41.289Z,16.25
2023-01-03T22:26:16.765Z,16.33
2023-01-03T22:28:47.644Z,15.65
2023-01-03T22:31:24.352Z,16.90
2023-01-03T22:33:52.882Z,19.90
2023-01-03T22:36:26.098Z,16.38
2023-01-03T22:38:54.259Z,14.65
2023-01-03T22:41:22.018Z,19.67
2023-01-03T22:43:53.342Z,19.55
2023-01-03T22:46:21.766Z,17.33
2023-01-03T22:48:55.215Z,16.48
2023-01-03T22:51:23.585Z,19.75
2023-01-03T22:53:52.652Z,19.15
2023-01-03T22:56:20.507Z,19.88
2023-01-03T22:58:53.510Z,17.05
2023-01-03T23:01:28.387Z,17.45
2023-01-03T23:04:01.087Z,16.27
2023-01-03T23:06:31.795Z,17.70
2023-01-03T23:09:01.588Z,20.27
2023-01-03T23:11:51.670Z,18.45
2023-01-03T23:14:23.018Z,18.63
2023-01-03T23:16:52.796Z,18.17
2023-01-03T23:19:26.929Z,20.70
2023-01-03T23:21:58.351Z,19.70
2023-01-03T23:24:25.889Z,18.58
2023-01-03T23:26:54.602Z,21.00
2023-01-03T23:29:22.725Z,18.52
2023-01-03T23:31:55.560Z,17.52
2023-01-03T23:34:23.264Z,16.63
2023-01-03T23:36:50.982Z,19.58
2023-01-03T23:39:19.581Z,18.75
2023-01-03T23:41:48.174Z,18.60
2023-01-03T23:44:15.836Z,17.60
2023-01-03T23:47:13.234Z,17.17
2023-01-03T23:49:41.318Z,17.25
2023-01-03T23:52:12.231Z,16.98
2023-01-03T23:54:59.550Z,17.70
